Time;durP1;ratioP1;P1;durP2;ratioP2;P2;SDS_P1;SDS_P2;PMS_P1;PMS_P2;Temp;Humidity;BMP_temperature;BMP_pressure;BME280_temperature;BME280_humidity;BME280_pressure;Samples;Min_cycle;Max_cycle;Signal;HPM_P1;HPM_P2
2023/05/12 00:02:24;;;;;;;;;;;;;;;12.82;100.00;101595.34;5091062;28;20048;-36
2023/05/12 00:04:49;;;;;;;4.70;4.15;;;;;;;12.76;100.00;101591.66;5090594;28;20390;-36
2023/05/12 00:07:15;;;;;;;3.67;3.30;;;;;;;12.75;100.00;101597.34;5089958;28;20020;-36
2023/05/12 00:09:40;;;;;;;8.85;5.00;;;;;;;12.69;100.00;101592.78;5089967;28;20099;-36
2023/05/12 00:12:07;;;;;;;4.78;4.28;;;;;;;12.58;100.00;101592.50;5080959;28;20082;-36
2023/05/12 00:14:36;;;;;;;4.80;3.92;;;;;;;12.68;100.00;101596.56;5076294;28;20031;-36
2023/05/12 00:17:03;;;;;;;5.38;3.97;;;;;;;12.57;100.00;101600.88;5076674;28;20031;-36
2023/05/12 00:19:29;;;;;;;4.72;4.28;;;;;;;12.49;100.00;101577.59;5076963;28;20025;-36
2023/05/12 00:21:55;;;;;;;;;;;;;;;12.67;100.00;101593.03;5076464;28;20079;-36
2023/05/12 00:24:20;;;;;;;4.80;4.00;;;;;;;12.58;100.00;101594.38;5076107;28;20352;-36
2023/05/12 00:26:45;;;;;;;4.30;3.90;;;;;;;12.55;100.00;101592.97;5076473;28;20103;-36
2023/05/12 00:29:11;;;;;;;4.70;4.30;;;;;;;12.50;100.00;101590.09;5076075;28;20403;-36
2023/05/12 00:31:36;;;;;;;5.38;4.25;;;;;;;12.46;100.00;101583.47;5075797;28;20028;-36
2023/05/12 00:34:01;;;;;;;4.95;4.40;;;;;;;12.45;100.00;101579.09;5076054;28;20154;-36
2023/05/12 00:36:27;;;;;;;7.60;4.55;;;;;;;12.34;100.00;101594.22;5076281;28;20024;-36
2023/05/12 00:38:53;;;;;;;5.18;4.68;;;;;;;12.30;100.00;101589.47;5076691;28;20075;-36
2023/05/12 00:41:19;;;;;;;5.55;4.72;;;;;;;12.26;100.00;101580.13;5075840;28;20444;-36
2023/05/12 00:43:44;;;;;;;;;;;;;;;12.44;100.00;101588.25;5076306;28;20099;-36
2023/05/12 00:46:10;;;;;;;5.50;4.50;;;;;;;12.31;100.00;101591.13;5075394;28;19954;-35
2023/05/12 00:48:36;;;;;;;4.85;4.30;;;;;;;12.34;100.00;101594.22;5075992;28;20074;-35
2023/05/12 00:51:03;;;;;;;5.22;4.72;;;;;;;12.34;100.00;101577.09;5075473;28;20046;-35
2023/05/12 00:53:30;;;;;;;4.78;4.22;;;;;;;12.37;100.00;101577.50;5075612;28;20107;-35
2023/05/12 00:55:56;;;;;;;6.30;4.78;;;;;;;12.33;100.00;101583.59;5075585;28;20027;-35
2023/05/12 00:58:22;;;;;;;5.60;4.38;;;;;;;12.29;100.00;101582.38;5075491;28;20044;-35
2023/05/12 01:00:47;;;;;;;4.97;4.47;;;;;;;12.26;100.00;101561.16;5076069;28;20040;-35
2023/05/12 01:03:12;;;;;;;5.93;4.93;;;;;;;12.25;100.00;101573.88;5075148;28;20574;-35
2023/05/12 01:05:46;;;;;;;5.35;4.85;;;;;;;12.24;100.00;101566.78;5075756;28;20146;-35
2023/05/12 01:08:12;;;;;;;5.90;5.40;;;;;;;12.17;100.00;101567.91;5075354;28;20028;-35
2023/05/12 01:10:43;;;;;;;6.00;5.47;;;;;;;12.07;100.00;101547.56;5075108;28;20052;-36
2023/05/12 01:13:08;;;;;;;6.45;5.82;;;;;;;12.22;100.00;101565.34;5075769;28;20016;-36
2023/05/12 01:15:35;;;;;;;5.80;5.30;;;;;;;12.18;100.00;101564.16;5075554;28;20037;-36
2023/05/12 01:18:04;;;;;;;7.53;5.60;;;;;;;12.08;100.00;101542.97;5074808;28;20035;-36
2023/05/12 01:20:30;;;;;;;6.32;5.72;;;;;;;12.18;100.00;101564.97;5075646;28;20150;-36
2023/05/12 01:22:57;;;;;;;6.43;5.47;;;;;;;12.13;100.00;101567.53;5074070;28;20095;-37
2023/05/12 01:25:24;;;;;;;6.30;5.65;;;;;;;12.14;100.00;101560.22;5075831;28;20052;-37
2023/05/12 01:27:49;;;;;;;6.13;5.50;;;;;;;12.11;100.00;101558.81;5074668;28;20016;-37
2023/05/12 01:30:16;;;;;;;7.55;6.10;;;;;;;12.08;100.00;101561.94;5074973;28;20021;-37
2023/05/12 01:32:42;;;;;;;5.80;5.30;;;;;;;12.06;100.00;101562.19;5074779;28;20036;-38
2023/05/12 01:35:08;;;;;;;8.63;5.72;;;;;;;12.08;100.00;101562.78;5075462;28;20074;-37
2023/05/12 01:37:33;;;;;;;5.72;4.55;;;;;;;11.96;100.00;101555.63;5074803;28;20020;-37
2023/05/12 01:39:59;;;;;;;5.10;4.22;;;;;;;11.99;100.00;101552.44;5074438;28;20027;-37
2023/05/12 01:42:24;;;;;;;5.60;5.00;;;;;;;11.94;100.00;101550.41;5074633;28;20019;-37
2023/05/12 01:44:49;;;;;;;4.85;4.45;;;;;;;11.97;100.00;101554.56;5074909;28;20023;-37
2023/05/12 01:47:15;;;;;;;5.07;4.50;;;;;;;11.99;100.00;101549.72;5074324;28;20016;-37
2023/05/12 01:49:40;;;;;;;5.40;4.90;;;;;;;11.99;100.00;101560.56;5074463;28;20121;-37
2023/05/12 01:52:05;;;;;;;7.47;4.90;;;;;;;11.94;100.00;101555.81;5074210;28;20055;-37
2023/05/12 01:54:31;;;;;;;5.72;4.50;;;;;;;11.92;100.00;101555.22;5074728;28;20024;-37
2023/05/12 01:56:56;;;;;;;5.57;4.70;;;;;;;11.85;100.00;101551.72;5075041;28;20032;-37
2023/05/12 01:59:22;;;;;;;4.85;4.38;;;;;;;11.76;100.00;101534.06;5074494;28;20027;-37
2023/05/12 02:01:47;;;;;;;4.97;4.50;;;;;;;11.76;100.00;101539.47;5074901;28;20033;-37
2023/05/12 02:04:12;;;;;;;5.75;4.50;;;;;;;11.82;100.00;101544.06;5074302;28;20025;-37
2023/05/12 02:06:38;;;;;;;4.50;4.10;;;;;;;11.71;100.00;101521.19;5074327;28;20020;-37
2023/05/12 02:09:03;;;;;;;5.87;4.20;;;;;;;11.82;100.00;101538.63;5073963;28;20269;-37
2023/05/12 02:11:29;;;;;;;4.60;4.20;;;;;;;11.65;100.00;101532.91;5073882;28;20262;-37
2023/05/12 02:13:55;;;;;;;4.45;3.60;;;;;;;11.71;100.00;101526.63;5074341;28;20021;-37
2023/05/12 02:16:20;;;;;;;4.60;3.83;;;;;;;11.75;100.00;101537.81;5074365;28;20101;-38
2023/05/12 02:18:46;;;;;;;5.55;3.80;;;;;;;11.74;100.00;101533.47;5074066;28;20025;-37
2023/05/12 02:21:12;;;;;;;4.10;3.67;;;;;;;11.74;100.00;101531.56;5074474;28;20036;-37
2023/05/12 02:23:37;;;;;;;4.57;3.97;;;;;;;11.73;100.00;101529.09;5074564;28;20031;-37
2023/05/12 02:26:02;;;;;;;4.00;3.60;;;;;;;11.71;100.00;101529.34;5074292;28;20243;-37
2023/05/12 02:28:28;;;;;;;4.15;3.75;;;;;;;11.68;100.00;101529.75;5074397;28;20265;-37
2023/05/12 02:30:53;;;;;;;3.60;3.10;;;;;;;11.71;100.00;101531.19;5074202;28;20504;-37
2023/05/12 02:33:20;;;;;;;3.88;3.22;;;;;;;11.66;100.00;101522.91;5073833;28;20051;-37
2023/05/12 02:35:46;;;;;;;3.72;3.38;;;;;;;11.65;100.00;101515.81;5074118;28;20031;-37
2023/05/12 02:38:12;;;;;;;3.85;3.40;;;;;;;11.62;100.00;101519.81;5074089;28;20033;-37
2023/05/12 02:40:37;;;;;;;;;;;;;;;11.76;100.00;101523.22;5074712;28;20394;-37
2023/05/12 02:43:03;;;;;;;3.55;2.90;;;;;;;11.62;100.00;101508.16;5073697;28;19990;-37
2023/05/12 02:45:28;;;;;;;3.80;3.50;;;;;;;11.68;100.00;101516.22;5074278;28;20029;-37
2023/05/12 02:47:54;;;;;;;3.47;3.17;;;;;;;11.56;100.00;101505.25;5073339;28;20472;-37
2023/05/12 02:50:20;;;;;;;4.50;3.45;;;;;;;11.66;100.00;101515.59;5073686;28;20078;-37
2023/05/12 02:52:49;;;;;;;3.55;3.25;;;;;;;11.59;100.00;101506.72;5073596;28;20021;-37
2023/05/12 02:55:14;;;;;;;3.25;2.95;;;;;;;11.63;100.00;101507.94;5074401;28;20062;-37
2023/05/12 02:57:40;;;;;;;3.00;2.67;;;;;;;11.62;100.00;101508.16;5073234;28;20024;-37
2023/05/12 03:00:06;;;;;;;3.13;2.83;;;;;;;11.60;100.00;101497.53;5074082;28;20218;-37
2023/05/12 03:02:32;;;;;;;2.78;2.42;;;;;;;11.64;100.00;101501.44;5073189;28;20044;-37
2023/05/12 03:04:58;;;;;;;3.13;2.72;;;;;;;11.67;100.00;101495.59;5073846;28;20045;-37
2023/05/12 03:07:23;;;;;;;4.70;3.33;;;;;;;11.66;100.00;101495.81;5074334;28;20060;-37
2023/05/12 03:09:49;;;;;;;4.18;2.50;;;;;;;11.60;100.00;101487.50;5073410;28;20031;-37
2023/05/12 03:12:14;;;;;;;3.00;2.75;;;;;;;11.63;100.00;101488.13;5073699;28;20468;-37
2023/05/12 03:14:40;;;;;;;2.95;2.72;;;;;;;11.59;100.00;101491.28;5073361;28;20377;-37
2023/05/12 03:17:05;;;;;;;2.73;2.53;;;;;;;11.60;100.00;101492.94;5074003;28;20032;-37
2023/05/12 03:19:30;;;;;;;2.87;2.67;;;;;;;11.54;100.00;101488.41;5073280;28;20290;-37
2023/05/12 03:21:56;;;;;;;3.53;3.13;;;;;;;11.57;100.00;101490.69;5073434;28;20702;-37
2023/05/12 03:24:21;;;;;;;3.10;2.80;;;;;;;11.54;100.00;101491.13;5073278;28;20365;-37
2023/05/12 03:26:47;;;;;;;3.50;3.08;;;;;;;11.41;100.00;101476.84;5073348;28;20098;-37
2023/05/12 03:29:12;;;;;;;3.78;3.35;;;;;;;11.46;100.00;101494.09;5073494;28;20024;-37
2023/05/12 03:31:37;;;;;;;3.90;3.50;;;;;;;11.51;100.00;101488.00;5073815;28;20024;-37
2023/05/12 03:34:03;;;;;;;3.53;3.23;;;;;;;11.45;100.00;101473.47;5073259;28;20103;-37
2023/05/12 03:36:28;;;;;;;3.17;2.87;;;;;;;11.45;100.00;101476.19;5073222;28;20266;-37
2023/05/12 03:38:53;;;;;;;4.65;3.65;;;;;;;11.47;100.00;101482.22;5073216;28;20028;-37
2023/05/12 03:41:19;;;;;;;4.57;4.03;;;;;;;11.44;100.00;101466.41;5073436;28;20044;-37
2023/05/12 03:43:44;;;;;;;6.15;4.32;;;;;;;11.43;100.00;101478.31;5073171;28;20052;-37
2023/05/12 03:46:10;;;;;;;5.33;4.60;;;;;;;11.46;100.00;101477.84;5073481;28;20021;-37
2023/05/12 03:48:35;;;;;;;;;;;;;;;11.51;100.00;101471.75;5078093;28;20263;-37
2023/05/12 03:51:01;;;;;;;6.47;4.57;;;;;;;11.48;100.00;101475.75;5076761;28;19915;-35
2023/05/12 03:53:26;;;;;;;5.07;4.57;;;;;;;11.50;100.00;101479.06;5076814;28;20267;-35
2023/05/12 03:55:51;;;;;;;6.07;4.93;;;;;;;11.59;100.00;101476.91;5077328;28;20247;-35
2023/05/12 03:58:17;;;;;;;6.47;5.40;;;;;;;11.53;100.00;101475.91;5076739;28;20070;-35
2023/05/12 04:00:42;;;;;;;5.83;5.17;;;;;;;11.44;100.00;101463.72;5077442;28;20368;-35
2023/05/12 04:03:07;;;;;;;6.63;5.43;;;;;;;11.53;100.00;101475.91;5076292;28;20273;-35
2023/05/12 04:05:33;;;;;;;7.30;5.90;;;;;;;11.55;100.00;101468.38;5076493;28;20093;-35
2023/05/12 04:07:59;;;;;;;8.15;6.18;;;;;;;11.50;100.00;101465.53;5076131;28;20063;-35
2023/05/12 04:10:24;;;;;;;6.90;6.20;;;;;;;11.49;100.00;101468.47;5076438;28;20028;-35
2023/05/12 04:12:51;;;;;;;9.13;6.63;;;;;;;11.35;100.00;101454.19;5076297;28;20263;-35
2023/05/12 04:15:16;;;;;;;9.43;7.47;;;;;;;11.34;100.00;101463.38;5076677;28;20021;-35
2023/05/12 04:17:41;;;;;;;8.93;7.17;;;;;;;11.38;100.00;101470.00;5077127;28;20031;-35
2023/05/12 04:20:07;;;;;;;9.43;7.43;;;;;;;11.34;100.00;101468.78;5076537;28;20301;-35
2023/05/12 04:22:33;;;;;;;10.07;7.80;;;;;;;11.37;100.00;101472.91;5076745;28;20069;-35
2023/05/12 04:24:58;;;;;;;10.05;8.45;;;;;;;11.35;100.00;101463.16;5076496;28;20077;-35
2023/05/12 04:27:23;;;;;;;10.60;9.00;;;;;;;11.37;100.00;101468.38;5076428;28;20122;-35
2023/05/12 04:29:49;;;;;;;10.13;8.27;;;;;;;11.43;100.00;101472.06;5076140;28;20267;-35
2023/05/12 04:32:14;;;;;;;11.43;9.13;;;;;;;11.41;100.00;101477.69;5076632;28;20025;-35
2023/05/12 04:34:40;;;;;;;11.63;9.65;;;;;;;11.41;100.00;101471.44;5076815;28;20024;-35
2023/05/12 04:37:05;;;;;;;11.63;9.55;;;;;;;11.41;100.00;101466.03;5076486;28;20364;-35
2023/05/12 04:39:31;;;;;;;12.35;9.90;;;;;;;11.46;100.00;101471.59;5075531;28;20435;-35
2023/05/12 04:41:56;;;;;;;12.70;10.13;;;;;;;11.45;100.00;101470.78;5076464;28;20028;-35
2023/05/12 04:44:21;;;;;;;13.20;10.70;;;;;;;11.51;100.00;101477.19;5075778;28;20035;-35
2023/05/12 04:46:48;;;;;;;12.77;10.07;;;;;;;11.51;100.00;101472.59;5076660;28;20066;-35
2023/05/12 04:49:13;;;;;;;13.68;11.30;;;;;;;11.43;100.00;101475.59;5075683;28;20263;-35
2023/05/12 04:51:41;;;;;;;17.23;11.95;;;;;;;11.48;100.00;101477.66;5076018;28;20032;-35
2023/05/12 04:54:09;;;;;;;14.98;10.90;;;;;;;11.51;100.00;101479.88;5075873;28;20063;-35
2023/05/12 04:56:35;;;;;;;15.70;12.15;;;;;;;11.48;100.00;101477.66;5075388;28;20020;-35
2023/05/12 04:59:00;;;;;;;15.73;11.75;;;;;;;11.47;100.00;101470.56;5075190;28;20027;-35
2023/05/12 05:01:26;;;;;;;15.57;13.32;;;;;;;11.54;100.00;101483.00;5076517;28;20044;-35
2023/05/12 05:03:51;;;;;;;16.38;13.18;;;;;;;11.50;100.00;101489.06;5075225;28;20044;-35
2023/05/12 05:06:17;;;;;;;17.75;13.38;;;;;;;11.48;100.00;101493.88;5076016;28;20023;-35
2023/05/12 05:08:42;;;;;;;16.95;12.63;;;;;;;11.44;100.00;101477.25;5075303;28;20032;-36
2023/05/12 05:11:08;;;;;;;18.57;14.70;;;;;;;11.42;100.00;101487.47;5075424;28;20109;-36
2023/05/12 05:13:33;;;;;;;16.95;14.20;;;;;;;11.52;100.00;101490.53;5075712;28;20565;-37
2023/05/12 05:15:58;;;;;;;17.60;14.73;;;;;;;11.46;100.00;101468.88;5076076;28;20162;-37
2023/05/12 05:18:24;;;;;;;18.10;14.48;;;;;;;11.60;100.00;101492.94;5074861;28;20109;-37
2023/05/12 05:20:49;;;;;;;17.95;14.20;;;;;;;11.60;100.00;101492.94;5075871;28;20033;-37
2023/05/12 05:23:14;;;;;;;20.23;15.97;;;;;;;11.57;100.00;101500.69;5074762;28;20107;-37
2023/05/12 05:25:40;;;;;;;18.05;14.88;;;;;;;11.55;100.00;101495.47;5075569;28;20258;-37
2023/05/12 05:28:05;;;;;;;20.67;15.48;;;;;;;11.67;100.00;101494.78;5075483;28;20016;-37
2023/05/12 05:30:31;;;;;;;19.80;15.40;;;;;;;11.65;100.00;101505.81;5075504;28;20345;-37
2023/05/12 05:32:56;;;;;;;19.63;15.95;;;;;;;11.68;100.00;101512.69;5074648;28;20449;-37
2023/05/12 05:35:21;;;;;;;22.40;16.37;;;;;;;11.69;100.00;101514.34;5075666;28;20027;-37
2023/05/12 05:37:47;;;;;;;21.75;16.50;;;;;;;11.72;100.00;101511.19;5074710;28;20031;-37
2023/05/12 05:40:13;;;;;;;20.70;16.70;;;;;;;11.78;100.00;101505.69;5075539;28;20052;-37
2023/05/12 05:42:38;;;;;;;21.35;16.85;;;;;;;11.74;100.00;101503.66;5074612;28;20020;-37
2023/05/12 05:45:04;;;;;;;18.67;15.90;;;;;;;11.84;100.00;101521.09;5074895;28;20440;-37
2023/05/12 05:47:30;;;;;;;20.48;16.20;;;;;;;11.89;100.00;101525.03;5074519;28;20815;-37
2023/05/12 05:49:56;;;;;;;20.77;16.27;;;;;;;11.88;100.00;101529.63;5074779;28;20506;-37
2023/05/12 05:52:23;;;;;;;23.87;18.40;;;;;;;11.90;100.00;101524.78;5074776;28;20028;-37
2023/05/12 05:54:48;;;;;;;20.02;17.27;;;;;;;11.94;100.00;101528.72;5075257;28;20262;-37
2023/05/12 05:57:14;;;;;;;19.85;16.88;;;;;;;11.96;100.00;101528.50;5075237;28;20024;-37
2023/05/12 05:59:39;;;;;;;23.83;18.13;;;;;;;12.01;100.00;101536.81;5074632;28;20105;-37
2023/05/12 06:02:05;;;;;;;22.00;17.45;;;;;;;12.05;100.00;101540.69;5074550;28;20020;-37
2023/05/12 06:04:30;;;;;;;24.25;18.42;;;;;;;12.14;100.00;101542.06;5074240;28;20028;-37
2023/05/12 06:06:56;;;;;;;22.70;17.92;;;;;;;12.22;100.00;101547.22;5073944;28;20024;-37
2023/05/12 06:09:21;;;;;;;22.15;17.80;;;;;;;12.32;100.00;101543.97;5073647;28;20024;-37
2023/05/12 06:11:46;;;;;;;22.35;19.08;;;;;;;12.45;100.00;101543.00;5074155;28;20357;-37
2023/05/12 06:14:12;;;;;;;22.43;19.03;;;;;;;12.56;100.00;101551.22;5074063;28;20052;-37
2023/05/12 06:16:38;;;;;;;23.45;19.30;;;;;;;12.61;100.00;101547.81;5074055;28;20016;-37
2023/05/12 06:19:03;;;;;;;22.95;18.83;;;;;;;12.65;100.00;101543.59;5073671;28;20035;-37
2023/05/12 06:21:29;;;;;;;23.88;18.75;;;;;;;12.79;100.00;101557.84;5074195;28;20083;-37
2023/05/12 06:23:55;;;;;;;22.08;19.27;;;;;;;12.88;100.00;101556.44;5073890;28;20408;-37
2023/05/12 06:26:20;;;;;;;;;;;;;;;13.00;100.00;101562.75;5074876;28;20525;-37
2023/05/12 06:28:46;;;;;;;20.08;17.50;;;;;;;13.07;100.00;101563.47;5074530;28;19995;-37
2023/05/12 06:31:12;;;;;;;20.88;17.75;;;;;;;13.12;100.00;101566.34;5074153;28;20419;-37
2023/05/12 06:33:37;;;;;;;18.38;16.45;;;;;;;13.04;100.00;101560.41;5073826;28;20461;-37
2023/05/12 06:36:03;;;;;;;17.63;15.70;;;;;;;13.17;100.00;101575.69;5073583;28;20054;-37
2023/05/12 06:38:28;;;;;;;;;;;;;;;13.21;100.00;101580.44;5074776;28;20503;-37
2023/05/12 06:40:53;;;;;;;15.88;14.27;;;;;;;13.19;100.00;101577.13;5073646;28;20366;-37
2023/05/12 06:43:19;;;;;;;17.07;15.33;;;;;;;13.20;100.00;101575.22;5073750;28;20028;-37
2023/05/12 06:45:44;;;;;;;16.13;14.43;;;;;;;13.19;100.00;101570.88;5074529;28;20345;-37
2023/05/12 06:48:09;;;;;;;16.77;15.07;;;;;;;13.24;100.00;101581.91;5074515;28;20278;-37
2023/05/12 06:50:35;;;;;;;15.20;13.70;;;;;;;13.31;100.00;101579.91;5074034;28;20024;-37
2023/05/12 06:53:01;;;;;;;14.48;12.98;;;;;;;13.32;100.00;101587.84;5073609;28;20104;-37
2023/05/12 06:55:26;;;;;;;14.95;13.55;;;;;;;13.34;100.00;101590.31;5073925;28;20369;-37
2023/05/12 06:57:54;;;;;;;;;;;;;;;13.42;100.00;101598.16;5074516;28;20033;-37
2023/05/12 07:00:23;;;;;;;14.63;13.15;;;;;;;13.47;100.00;101590.13;5074070;28;19912;-37
2023/05/12 07:02:49;;;;;;;14.00;12.57;;;;;;;13.53;100.00;101591.91;5073453;28;20510;-37
2023/05/12 07:05:15;;;;;;;14.43;12.95;;;;;;;13.61;100.00;101599.72;5073542;28;20024;-37
2023/05/12 07:07:40;;;;;;;;;;;;;;;13.69;100.00;101606.72;5073595;28;20023;-37
2023/05/12 07:10:06;;;;;;;11.63;10.52;;;;;;;13.71;100.00;101603.75;5073421;28;19915;-37
2023/05/12 07:12:32;;;;;;;11.70;10.70;;;;;;;13.65;100.00;101603.63;5073320;28;20048;-37
2023/05/12 07:14:57;;;;;;;12.25;11.05;;;;;;;13.62;100.00;101595.13;5073695;28;20093;-37
2023/05/12 07:17:22;;;;;;;11.45;10.45;;;;;;;13.77;100.00;101616.44;5073945;28;20104;-37
2023/05/12 07:19:48;;;;;;;11.07;9.98;;;;;;;13.80;100.00;101610.50;5073029;28;20111;-37
2023/05/12 07:22:13;;;;;;;10.77;9.67;;;;;;;13.85;100.00;101610.63;5075771;28;20016;-37
2023/05/12 07:24:39;;;;;;;9.90;8.93;;;;;;;13.85;100.00;101605.19;5077662;28;20656;-37
2023/05/12 07:27:04;;;;;;;;;;;;;;;13.88;100.00;101613.72;5077532;28;20026;-37
2023/05/12 07:29:30;;;;;;;8.70;7.90;;;;;;;14.04;100.00;101614.91;5077238;28;19911;-37
2023/05/12 07:31:55;;;;;;;;;;;;;;;14.18;100.00;101605.47;5078003;28;20028;-37
2023/05/12 07:34:20;;;;;;;7.97;7.28;;;;;;;14.35;100.00;101605.59;5077397;28;19953;-37
2023/05/12 07:36:46;;;;;;;9.15;7.82;;;;;;;14.56;100.00;101615.06;5077236;28;20107;-37
2023/05/12 07:39:13;;;;;;;7.50;6.80;;;;;;;14.53;100.00;101615.53;5077365;28;20457;-37
2023/05/12 07:41:39;;;;;;;6.88;6.28;;;;;;;14.57;100.00;101618.59;5077533;28;20055;-37
2023/05/12 07:44:05;;;;;;;6.70;5.97;;;;;;;14.62;100.00;101619.53;5077219;28;20044;-37
2023/05/12 07:46:30;;;;;;;7.18;5.55;;;;;;;14.65;100.00;101621.78;5076973;28;20016;-37
2023/05/12 07:48:56;;;;;;;;;;;;;;;14.81;100.00;101633.00;5077001;28;20020;-37
2023/05/12 07:51:21;;;;;;;5.10;4.60;;;;;;;14.71;100.00;101627.34;5077384;28;19955;-37
2023/05/12 07:53:47;;;;;;;;;;;;;;;14.89;100.00;101632.66;5078040;28;20100;-37
2023/05/12 07:56:13;;;;;;;5.60;4.18;;;;;;;14.78;100.00;101637.03;5077271;28;19905;-37
2023/05/12 07:58:38;;;;;;;5.32;4.57;;;;;;;14.74;100.00;101633.16;5076674;28;20029;-37
2023/05/12 08:01:05;;;;;;;5.43;4.40;;;;;;;14.84;100.00;101632.53;5077635;28;20329;-37
2023/05/12 08:03:32;;;;;;;4.45;4.05;;;;;;;14.92;100.00;101634.88;5077139;28;20474;-37
2023/05/12 08:05:57;;;;;;;4.93;4.53;;;;;;;14.93;100.00;101628.34;5076299;28;20040;-37
2023/05/12 08:08:23;;;;;;;5.20;4.60;;;;;;;15.09;100.00;101634.97;5076513;28;20020;-37
2023/05/12 08:10:48;;;;;;;5.30;4.80;;;;;;;15.24;100.00;101635.25;5077399;28;20032;-37
2023/05/12 08:13:13;;;;;;;4.72;4.30;;;;;;;15.36;100.00;101636.03;5076786;28;20021;-37
2023/05/12 08:15:39;;;;;;;4.30;3.90;;;;;;;15.26;100.00;101640.44;5076450;28;20024;-37
2023/05/12 08:18:04;;;;;;;;;;;;;;;15.23;100.00;101644.50;5076782;28;20021;-37
2023/05/12 08:20:30;;;;;;;4.30;3.90;;;;;;;15.04;100.00;101641.13;5076031;28;20272;-37
2023/05/12 08:22:55;;;;;;;;;;;;;;;15.12;100.00;101645.34;5076400;28;20468;-37
2023/05/12 08:25:21;;;;;;;3.92;3.53;;;;;;;15.06;100.00;101646.31;5076825;28;19908;-37
2023/05/12 08:27:46;;;;;;;;;;;;;;;15.14;100.00;101649.50;5076574;28;20032;-37
2023/05/12 08:30:12;;;;;;;4.77;3.50;;;;;;;15.10;100.00;101661.94;5076489;28;20011;-37
2023/05/12 08:32:37;;;;;;;5.07;3.75;;;;;;;15.35;100.00;101649.91;5076181;28;20634;-37
2023/05/12 08:35:03;;;;;;;5.20;3.63;;;;;;;15.54;100.00;101653.25;5076112;28;20024;-37
2023/05/12 08:37:29;;;;;;;3.42;3.13;;;;;;;15.85;100.00;101654.66;5076007;28;20017;-37
2023/05/12 08:39:54;;;;;;;;;;;;;;;16.06;100.00;101659.41;5076350;28;20028;-37
2023/05/12 08:42:22;;;;;;;3.38;2.60;;;;;;;16.19;100.00;101656.31;5075935;28;20037;-37
2023/05/12 08:44:48;;;;;;;3.38;2.28;;;;;;;16.17;100.00;101671.28;5075904;28;20093;-37
2023/05/12 08:47:17;;;;;;;3.92;2.47;;;;;;;16.09;100.00;101663.50;5076484;28;20029;-37
2023/05/12 08:49:44;;;;;;;3.40;2.70;;;;;;;16.06;100.00;101662.13;5075509;28;20122;-37
2023/05/12 08:52:11;;;;;;;4.38;2.67;;;;;;;16.05;100.00;101655.00;5075777;28;20028;-37
2023/05/12 08:54:37;;;;;;;3.10;2.00;;;;;;;16.19;100.00;101672.69;5076449;28;20078;-37
2023/05/12 08:57:03;;;;;;;3.28;2.22;;;;;;;16.31;100.00;101666.34;5075330;28;20508;-37
2023/05/12 08:59:28;;;;;;;;;;;;;;;16.37;100.00;101676.25;5076242;28;20108;-37
2023/05/12 09:01:55;;;;;;;2.60;2.40;;;;;;;16.40;100.00;101662.94;5076263;28;19935;-37
2023/05/12 09:04:20;;;;;;;3.92;2.38;;;;;;;16.46;100.00;101663.84;5075503;28;20274;-37
2023/05/12 09:06:46;;;;;;;;;;;;;;;16.57;100.00;101668.34;5075864;28;20024;-37
2023/05/12 09:09:14;;;;;;;2.50;2.30;;;;;;;16.56;100.00;101676.81;5075028;28;19915;-37
2023/05/12 09:11:40;;;;;;;2.97;2.40;;;;;;;16.56;100.00;101665.88;5075063;28;20031;-37
2023/05/12 09:14:18;;;;;;;4.13;2.30;;;;;;;16.76;100.00;101668.94;5075513;28;20108;-38
2023/05/12 09:16:47;;;;;;;3.53;2.42;;;;;;;16.73;100.00;101672.97;5074920;28;20470;-37
2023/05/12 09:19:18;;;;;;;3.47;2.40;;;;;;;16.88;100.00;101690.66;5075146;28;20024;-38
2023/05/12 09:21:43;;;;;;;3.83;2.20;;;;;;;16.94;100.00;101676.00;5075365;28;20377;-37
2023/05/12 09:24:08;;;;;;;;;;;;;;;17.13;100.00;101677.34;5075189;28;20107;-37
2023/05/12 09:26:48;;;;;;;3.58;1.98;;;;;;;17.33;100.00;101681.41;5075008;28;20241;-37
2023/05/12 09:29:15;;;;;;;3.78;1.98;;;;;;;17.28;97.58;101675.88;5075238;28;20092;-37
2023/05/12 09:31:49;;;;;;;5.30;1.60;;;;;;;17.26;97.52;101676.13;5074913;28;20036;-37
2023/05/12 09:34:15;;;;;;;2.67;1.73;;;;;;;17.20;94.51;101658.84;5074902;28;20063;-37
2023/05/12 09:36:40;;;;;;;;;;;;;;;17.49;100.00;101669.56;5091864;28;20024;-37
2023/05/12 09:39:08;;;;;;;3.47;2.05;;;;;;;17.25;94.67;101669.00;5074998;28;19904;-37
2023/05/12 09:41:40;;;;;;;2.70;1.55;;;;;;;17.27;95.82;101680.50;5074469;28;20031;-37
2023/05/12 09:44:07;;;;;;;7.95;1.85;;;;;;;17.28;97.29;101684.09;5073615;28;20017;-37
2023/05/12 09:46:33;;;;;;;3.00;1.73;;;;;;;17.24;99.81;101690.06;5074633;28;20020;-37
2023/05/12 09:48:59;;;;;;;4.28;1.88;;;;;;;17.34;100.00;101686.63;5074531;28;20073;-37
2023/05/12 09:51:26;;;;;;;1.88;1.60;;;;;;;17.24;96.89;101684.59;5075410;28;20345;-37
2023/05/12 09:53:52;;;;;;;2.97;1.85;;;;;;;17.20;97.87;101683.44;5075002;28;20041;-37
2023/05/12 09:56:17;;;;;;;;;;;;;;;17.27;97.81;101688.69;5074919;28;20028;-37
2023/05/12 09:58:45;;;;;;;4.20;2.00;;;;;;;16.98;93.56;101690.78;5074095;28;19908;-37
2023/05/12 10:01:13;;;;;;;2.05;1.80;;;;;;;17.18;99.36;101682.88;5074766;28;20467;-37
2023/05/12 10:03:43;;;;;;;2.22;1.75;;;;;;;17.50;97.22;101688.44;5074345;28;20024;-37
2023/05/12 10:06:14;;;;;;;2.35;1.90;;;;;;;17.75;97.73;101690.63;5074957;28;20032;-37
2023/05/12 10:08:52;;;;;;;3.17;1.80;;;;;;;17.87;90.34;101689.66;5074528;28;20024;-37
2023/05/12 10:11:20;;;;;;;2.28;1.70;;;;;;;18.00;92.84;101691.94;5074452;28;20032;-37
2023/05/12 10:13:46;;;;;;;2.13;1.80;;;;;;;17.98;93.33;101689.50;5073838;28;20091;-37
2023/05/12 10:16:11;;;;;;;;;;;;;;;17.92;91.53;101706.94;5074820;28;20028;-37
2023/05/12 10:18:38;;;;;;;1.88;1.58;;;;;;;18.07;92.23;101699.97;5074301;28;20256;-37
2023/05/12 10:21:04;;;;;;;3.17;1.83;;;;;;;18.22;92.23;101695.44;5074191;28;20024;-37
2023/05/12 10:23:29;;;;;;;;;;;;;;;18.42;94.23;101700.25;5074137;28;20012;-36
2023/05/12 10:25:57;;;;;;;2.83;1.70;;;;;;;18.12;87.76;101703.56;5073665;28;19912;-37
2023/05/12 10:28:24;;;;;;;2.38;1.52;;;;;;;17.99;90.06;101691.13;5074151;28;20456;-37
2023/05/12 10:30:50;;;;;;;3.95;2.10;;;;;;;18.00;90.25;101708.38;5073923;28;20028;-37
2023/05/12 10:33:16;;;;;;;3.67;1.50;;;;;;;17.90;87.78;101697.34;5073822;28;20504;-36
2023/05/12 10:35:42;;;;;;;;;;;;;;;18.13;90.71;101707.97;5074610;28;20107;-36
2023/05/12 10:38:10;;;;;;;1.97;1.50;;;;;;;17.79;87.09;101703.81;5073854;28;19904;-36
2023/05/12 10:40:48;;;;;;;2.30;1.60;;;;;;;18.05;91.72;101704.84;5073524;28;20024;-37
2023/05/12 10:43:22;;;;;;;2.22;1.60;;;;;;;18.10;88.33;101705.72;5073994;28;20036;-37
2023/05/12 10:46:05;;;;;;;4.25;1.67;;;;;;;18.19;88.50;101704.16;5074202;28;20025;-37
2023/05/12 10:48:30;;;;;;;4.05;1.85;;;;;;;18.40;89.58;101699.69;5074038;28;20024;-37
2023/05/12 10:50:55;;;;;;;;;;;;;;;18.47;89.01;101708.50;5074680;28;20513;-37
2023/05/12 10:53:27;;;;;;;2.20;1.42;;;;;;;18.31;84.99;101709.47;5073628;28;20363;-37
2023/05/12 10:55:55;;;;;;;2.15;1.60;;;;;;;18.10;85.94;101718.59;5073438;28;20024;-37
2023/05/12 10:58:20;;;;;;;1.85;1.50;;;;;;;17.89;88.03;101709.38;5073508;28;20017;-37
2023/05/12 11:00:48;;;;;;;;;;;;;;;18.04;87.74;101706.78;5074612;28;20365;-37
2023/05/12 11:03:18;;;;;;;3.60;1.80;;;;;;;18.24;89.69;101731.59;5074042;28;19979;-37
2023/05/12 11:05:44;;;;;;;2.95;1.73;;;;;;;18.41;89.28;101719.69;5073836;28;20024;-37
2023/05/12 11:08:10;;;;;;;2.70;1.80;;;;;;;18.17;83.25;101720.03;5073170;28;20466;-37
2023/05/12 11:10:36;;;;;;;;;;;;;;;18.24;84.16;101719.81;5074225;28;20086;-37
2023/05/12 11:13:03;;;;;;;2.20;1.70;;;;;;;18.18;84.97;101729.91;5073405;28;19935;-37
2023/05/12 11:15:29;;;;;;;2.25;1.58;;;;;;;18.23;85.13;101719.00;5073732;28;20048;-37
2023/05/12 11:17:54;;;;;;;;;;;;;;;18.42;84.49;101721.34;5074080;28;20031;-37